Terminal Aerodrome Forecast
Issued by NWS

Home | Current Version | Previous Version | Graphics & Text | Print | Product List | Glossary On
Versions: 1 2 3 4 5 6 7 8 9 10 11 12 13 14
646
FTUS43 KMPX 211120
TAFAXN
TAF
KAXN 211120Z 2112/2212 01010KT 3SM -RA BR OVC005
     FM211500 33014G23KT 4SM -DZ BR OVC009
     FM211900 32014G23KT P6SM VCSH OVC015
     FM220000 31010KT P6SM BKN025 OVC040
     FM220300 29008KT P6SM BKN040=

USA.gov is the U.S. government's official web portal to all federal, state and local government web resources and services.